New Maysville, Indiana
Current Conditions -  °F | °C
As of 2:55 PM on Thursday 23 Oct 2014 (Local Time) from K4I7 Reporting Station
Clear Clear  
Wind Chill: 55°   Ceiling: Unl
Heat Index: 55°   Visibility: 10mi
Dew Point: 41°   Wind: 6mph
Humidity: 58%   Direction: 180°S
Pressure: 30.18"   Gusts: NA
Location:  39.821°N, 86.7929°W
Report Text: K4I7 231855Z AUTO 18005KT 10SM CLR 13/05 A3018 RMK AO2
Loading
Personal Weather Stations






























Interactive Weather Map
Tropical Storm Tracking
New forecast layout! Learn more

10-Day Weather Forecast

Advertisements
Track Severe Weather on mobile